createdAt,value
2022-08-02T00:02:20.179Z,25.20
2022-08-02T00:04:49.788Z,25.19
2022-08-02T00:07:19.648Z,25.23
2022-08-02T00:09:49.050Z,25.24
2022-08-02T00:12:21.050Z,25.25
2022-08-02T00:14:50.461Z,25.26
2022-08-02T00:17:19.964Z,25.24
2022-08-02T00:19:49.369Z,25.23
2022-08-02T00:22:18.860Z,25.22
2022-08-02T00:24:48.272Z,25.19
2022-08-02T00:27:17.679Z,25.23
2022-08-02T00:29:52.958Z,25.20
2022-08-02T00:32:23.038Z,25.22
2022-08-02T00:34:52.580Z,25.23
2022-08-02T00:37:22.047Z,25.18
2022-08-02T00:39:51.452Z,25.20
2022-08-02T00:42:20.864Z,25.15
2022-08-02T00:44:52.901Z,25.00
2022-08-02T00:47:22.298Z,24.92
2022-08-02T00:49:51.711Z,24.91
2022-08-02T00:52:21.121Z,24.84
2022-08-02T00:54:50.532Z,24.81
2022-08-02T00:57:19.935Z,24.63
2022-08-02T00:59:51.934Z,24.49
2022-08-02T01:02:21.413Z,24.49
2022-08-02T01:04:50.927Z,24.48
2022-08-02T01:07:20.962Z,24.40
2022-08-02T01:09:50.379Z,24.26
2022-08-02T01:12:19.842Z,24.24
2022-08-02T01:14:52.992Z,24.26
2022-08-02T01:17:26.166Z,24.26
2022-08-02T01:19:58.634Z,24.25
2022-08-02T01:23:03.589Z,24.26
2022-08-02T01:25:58.569Z,24.28
2022-08-02T01:28:35.885Z,24.22
2022-08-02T01:31:10.403Z,24.17
2022-08-02T01:33:42.579Z,24.23
2022-08-02T01:36:12.955Z,24.19
2022-08-02T01:38:45.059Z,24.17
2022-08-02T01:41:16.307Z,23.87
2022-08-02T01:43:48.962Z,23.87
2022-08-02T01:46:18.391Z,23.85
2022-08-02T01:48:48.240Z,23.91
2022-08-02T01:51:20.203Z,23.79
2022-08-02T01:53:51.314Z,23.92
2022-08-02T01:56:20.737Z,24.01
2022-08-02T01:58:53.421Z,23.99
2022-08-02T02:01:22.853Z,23.99
2022-08-02T02:03:52.296Z,23.97
2022-08-02T02:06:21.705Z,23.89
2022-08-02T02:08:51.141Z,23.73
2022-08-02T02:12:13.152Z,23.73
2022-08-02T02:14:12.544Z,23.69
2022-08-02T02:16:42.529Z,23.62
2022-08-02T02:19:12.069Z,23.68
2022-08-02T02:21:50.615Z,23.71
2022-08-02T02:24:20.033Z,23.71
2022-08-02T02:26:51.947Z,23.74
2022-08-02T02:29:24.871Z,23.76
2022-08-02T02:31:55.280Z,23.62
2022-08-02T02:34:28.143Z,23.53
2022-08-02T02:36:57.546Z,23.50
2022-08-02T02:39:27.287Z,23.50
2022-08-02T02:41:56.724Z,23.55
2022-08-02T02:44:28.774Z,23.60
2022-08-02T02:46:58.195Z,23.63
2022-08-02T02:49:27.674Z,23.59
2022-08-02T02:51:57.137Z,23.63
2022-08-02T02:54:34.109Z,23.66
2022-08-02T02:57:04.350Z,23.64
2022-08-02T02:59:42.915Z,23.61
2022-08-02T03:02:18.869Z,23.58
2022-08-02T03:04:56.264Z,23.57
2022-08-02T03:07:27.069Z,23.57
2022-08-02T03:09:56.498Z,23.58
2022-08-02T03:12:31.977Z,23.55
2022-08-02T03:15:05.300Z,23.57
2022-08-02T03:17:42.096Z,23.55
2022-08-02T03:20:15.808Z,23.49
2022-08-02T03:22:45.365Z,23.41
2022-08-02T03:25:15.232Z,23.34
2022-08-02T03:27:44.718Z,23.33
2022-08-02T03:30:17.208Z,23.15
2022-08-02T03:32:48.385Z,23.25
2022-08-02T03:35:23.679Z,23.21
2022-08-02T03:37:54.890Z,23.22
2022-08-02T03:40:24.443Z,23.16
2022-08-02T03:42:53.854Z,22.97
2022-08-02T03:45:26.019Z,23.01
2022-08-02T03:47:58.976Z,23.01
2022-08-02T03:50:28.606Z,23.04
2022-08-02T03:52:58.058Z,23.05
2022-08-02T03:55:27.590Z,23.09
2022-08-02T03:57:57.037Z,23.09
2022-08-02T04:00:29.061Z,23.09
2022-08-02T04:02:58.477Z,23.06
2022-08-02T04:05:28.171Z,23.03
2022-08-02T04:08:32.846Z,23.03
2022-08-02T04:10:59.563Z,22.94
2022-08-02T04:13:31.914Z,22.97
2022-08-02T04:16:13.599Z,22.99
2022-08-02T04:18:45.770Z,23.02
2022-08-02T04:21:17.691Z,23.02
2022-08-02T04:23:47.634Z,23.04
2022-08-02T04:26:18.520Z,23.04
2022-08-02T04:28:56.403Z,22.83
2022-08-02T04:31:28.435Z,22.71
2022-08-02T04:33:57.899Z,22.65
2022-08-02T04:36:31.302Z,22.72
2022-08-02T04:39:01.298Z,22.82
2022-08-02T04:41:44.010Z,22.89
2022-08-02T04:44:13.865Z,22.99
2022-08-02T04:46:46.615Z,23.04
2022-08-02T04:49:16.144Z,22.99
2022-08-02T04:51:45.929Z,22.89
2022-08-02T04:54:15.444Z,22.58
2022-08-02T04:56:44.965Z,22.62
2022-08-02T04:59:14.727Z,22.64
2022-08-02T05:01:46.749Z,22.68
2022-08-02T05:04:16.158Z,22.69
2022-08-02T05:06:45.621Z,22.66
2022-08-02T05:09:15.033Z,22.58
2022-08-02T05:11:44.483Z,22.76
2022-08-02T05:14:24.371Z,22.77
2022-08-02T05:16:56.387Z,22.80
2022-08-02T05:19:25.825Z,22.95
2022-08-02T05:21:55.247Z,23.09
2022-08-02T05:24:24.687Z,23.26
2022-08-02T05:26:54.126Z,23.44
2022-08-02T05:29:23.560Z,23.61
2022-08-02T05:31:53.123Z,23.77
2022-08-02T05:34:25.131Z,23.96
2022-08-02T05:36:54.562Z,24.07
2022-08-02T05:39:24.911Z,24.16
2022-08-02T05:42:01.382Z,24.09
2022-08-02T05:44:30.801Z,24.18
2022-08-02T05:47:00.256Z,24.21
2022-08-02T05:49:32.292Z,24.07
2022-08-02T05:52:05.467Z,24.03
2022-08-02T05:54:43.857Z,24.25
2022-08-02T05:57:14.921Z,24.39
2022-08-02T05:59:51.025Z,24.42
2022-08-02T06:02:26.288Z,24.42
2022-08-02T06:05:05.608Z,24.42
2022-08-02T06:07:35.933Z,24.32
2022-08-02T06:10:06.180Z,24.32
2022-08-02T06:12:36.464Z,24.49
2022-08-02T06:15:05.925Z,24.44
2022-08-02T06:17:35.372Z,24.53
2022-08-02T06:20:15.205Z,24.75
2022-08-02T06:22:46.103Z,24.91
2022-08-02T06:25:50.595Z,25.05
2022-08-02T06:28:11.292Z,25.22
2022-08-02T06:30:41.658Z,25.45
2022-08-02T06:33:11.070Z,25.55
2022-08-02T06:35:46.244Z,25.69
2022-08-02T06:38:17.767Z,25.91
2022-08-02T06:40:48.926Z,26.00
2022-08-02T06:43:21.365Z,26.08
2022-08-02T06:45:50.792Z,26.20
2022-08-02T06:48:20.234Z,26.29
2022-08-02T06:50:52.329Z,26.43
2022-08-02T06:53:21.886Z,26.66
2022-08-02T06:55:51.333Z,26.67
2022-08-02T06:58:20.769Z,26.72
2022-08-02T07:00:50.218Z,26.67
2022-08-02T07:03:20.039Z,26.75
2022-08-02T07:05:52.030Z,26.73
2022-08-02T07:08:21.761Z,26.79
2022-08-02T07:10:51.177Z,26.88
2022-08-02T07:13:20.652Z,27.08
2022-08-02T07:15:50.064Z,27.01
2022-08-02T07:18:20.191Z,27.26
2022-08-02T07:20:52.240Z,27.47
2022-08-02T07:23:21.771Z,27.22
2022-08-02T07:26:02.621Z,27.01
2022-08-02T07:28:33.748Z,27.41
2022-08-02T07:31:03.166Z,27.58
2022-08-02T07:33:38.630Z,27.86
2022-08-02T07:36:16.702Z,27.99
2022-08-02T07:38:47.983Z,28.29
2022-08-02T07:41:17.395Z,28.36
2022-08-02T07:43:46.976Z,28.51
2022-08-02T07:46:16.400Z,28.73
2022-08-02T07:48:45.834Z,28.88
2022-08-02T07:51:17.857Z,28.90
2022-08-02T07:53:51.500Z,29.08
2022-08-02T07:56:31.507Z,29.05
2022-08-02T07:59:00.943Z,28.84
2022-08-02T08:01:30.412Z,28.94
2022-08-02T08:03:59.882Z,29.36
2022-08-02T08:06:31.901Z,29.00
2022-08-02T08:09:01.314Z,28.99
2022-08-02T08:11:30.744Z,29.17
2022-08-02T08:14:00.178Z,29.30
2022-08-02T08:16:29.987Z,29.59
2022-08-02T08:18:59.440Z,29.61
2022-08-02T08:21:31.582Z,29.87
2022-08-02T08:24:01.063Z,30.22
2022-08-02T08:26:30.467Z,30.43
2022-08-02T08:29:00.651Z,30.61
2022-08-02T08:31:30.113Z,30.36
2022-08-02T08:33:59.545Z,30.56
2022-08-02T08:36:31.583Z,30.56
2022-08-02T08:39:01.033Z,30.63
2022-08-02T08:41:30.475Z,30.28
2022-08-02T08:44:00.023Z,30.69
2022-08-02T08:46:30.572Z,30.91
2022-08-02T08:49:02.576Z,31.13
2022-08-02T08:51:39.771Z,31.45
2022-08-02T08:54:09.874Z,31.48
2022-08-02T08:56:39.375Z,31.53
2022-08-02T08:59:09.353Z,31.95
2022-08-02T09:01:49.829Z,31.94
2022-08-02T09:04:20.222Z,32.33
2022-08-02T09:06:52.454Z,32.53
2022-08-02T09:09:21.920Z,32.79
2022-08-02T09:11:51.329Z,33.28
2022-08-02T09:14:28.850Z,32.77
2022-08-02T09:17:08.494Z,33.17
2022-08-02T09:19:38.121Z,33.38
2022-08-02T09:22:17.617Z,33.98
2022-08-02T09:24:48.183Z,34.40
2022-08-02T09:27:18.162Z,35.11
2022-08-02T09:32:48.011Z,36.82
2022-08-02T09:35:17.868Z,38.99
2022-08-02T09:37:49.898Z,40.30
2022-08-02T09:40:19.340Z,41.67
2022-08-02T09:43:00.764Z,43.50
2022-08-02T09:45:34.547Z,44.99
2022-08-02T09:48:04.784Z,45.04
2022-08-02T09:50:34.248Z,44.44
2022-08-02T09:53:06.356Z,46.10
2022-08-02T09:55:36.154Z,47.61
2022-08-02T09:58:19.915Z,48.27
2022-08-02T10:00:57.043Z,48.94
2022-08-02T10:03:35.143Z,47.47
2022-08-02T10:06:05.211Z,47.97
2022-08-02T10:08:37.232Z,49.45
2022-08-02T10:11:06.659Z,50.19
2022-08-02T10:13:37.234Z,51.00
2022-08-02T10:16:07.191Z,51.79
2022-08-02T10:18:39.385Z,52.83
2022-08-02T10:21:10.230Z,53.18
2022-08-02T10:23:42.028Z,52.96
2022-08-02T10:26:11.454Z,50.21
2022-08-02T10:28:40.928Z,48.67
2022-08-02T10:31:10.360Z,49.29
2022-08-02T10:33:39.787Z,49.55
2022-08-02T10:36:09.350Z,46.87
2022-08-02T10:38:38.762Z,46.43
2022-08-02T10:41:10.777Z,46.97
2022-08-02T10:43:44.933Z,47.24
2022-08-02T10:46:33.951Z,46.58
2022-08-02T10:49:36.651Z,43.20
2022-08-02T10:52:12.471Z,41.36
2022-08-02T10:54:43.400Z,40.30
2022-08-02T10:57:23.432Z,39.12
2022-08-02T10:59:53.655Z,37.76
2022-08-02T11:02:39.044Z,36.52
2022-08-02T11:05:10.760Z,36.20
2022-08-02T11:07:41.346Z,35.51
2022-08-02T11:10:41.376Z,35.45
2022-08-02T11:13:14.896Z,35.51
2022-08-02T11:16:01.287Z,35.86
2022-08-02T11:19:00.844Z,35.05
2022-08-02T11:21:31.155Z,34.41
2022-08-02T11:24:00.477Z,34.11
2022-08-02T11:26:44.801Z,33.73
2022-08-02T11:29:16.802Z,33.94
2022-08-02T11:31:47.047Z,33.90
2022-08-02T11:34:37.010Z,34.51
2022-08-02T11:37:05.979Z,34.14
2022-08-02T11:39:35.394Z,33.74
2022-08-02T11:42:04.824Z,33.41
2022-08-02T11:44:46.663Z,32.87
2022-08-02T11:47:16.088Z,32.64
2022-08-02T11:49:45.654Z,32.10
2022-08-02T11:52:15.487Z,31.98
2022-08-02T11:54:45.864Z,32.46
2022-08-02T11:57:19.674Z,32.53
2022-08-02T11:59:52.865Z,31.88
2022-08-02T12:02:22.768Z,31.46
2022-08-02T12:04:58.510Z,31.39
2022-08-02T12:07:34.961Z,31.50
2022-08-02T12:10:08.032Z,32.07
2022-08-02T12:12:49.268Z,32.63
2022-08-02T12:15:32.128Z,32.92
2022-08-02T12:18:14.155Z,33.30
2022-08-02T12:20:43.592Z,33.70
2022-08-02T12:23:13.042Z,33.95
2022-08-02T12:25:42.657Z,34.32
2022-08-02T12:28:20.511Z,34.40
2022-08-02T12:30:58.070Z,34.51
2022-08-02T12:33:39.348Z,34.83
2022-08-02T12:36:17.938Z,35.18
2022-08-02T12:38:54.189Z,35.09
2022-08-02T12:41:31.163Z,34.54
2022-08-02T12:44:02.014Z,34.04
2022-08-02T12:46:41.902Z,33.91
2022-08-02T12:49:19.151Z,33.60
2022-08-02T12:51:56.486Z,33.90
2022-08-02T12:54:31.124Z,33.71
2022-08-02T12:57:01.567Z,33.87
2022-08-02T12:59:38.591Z,34.47
2022-08-02T13:02:12.886Z,34.83
2022-08-02T13:04:49.835Z,34.77
2022-08-02T13:07:20.222Z,34.00
2022-08-02T13:09:50.214Z,33.50
2022-08-02T13:12:19.670Z,33.71
2022-08-02T13:14:49.787Z,34.29
2022-08-02T13:17:22.175Z,34.70
2022-08-02T13:19:53.208Z,35.00
2022-08-02T13:22:22.756Z,35.06
2022-08-02T13:24:56.747Z,34.57
2022-08-02T13:27:27.030Z,33.83
2022-08-02T13:29:56.826Z,33.48
2022-08-02T13:32:29.092Z,32.76
2022-08-02T13:34:58.566Z,33.17
2022-08-02T13:37:28.264Z,33.40
2022-08-02T13:40:20.087Z,33.46
2022-08-02T13:42:47.083Z,33.17
2022-08-02T13:45:16.512Z,32.97
2022-08-02T13:47:57.644Z,32.92
2022-08-02T13:50:35.082Z,33.43
2022-08-02T13:53:04.533Z,33.96
2022-08-02T13:55:34.095Z,34.10
2022-08-02T13:58:04.904Z,34.62
2022-08-02T14:00:36.312Z,34.57
2022-08-02T14:03:11.981Z,34.55
2022-08-02T14:05:47.411Z,34.98
2022-08-02T14:08:18.692Z,35.32
2022-08-02T14:10:48.950Z,35.21
2022-08-02T14:13:18.504Z,35.23
2022-08-02T14:15:47.946Z,35.41
2022-08-02T14:18:19.955Z,35.40
2022-08-02T14:20:49.358Z,35.62
2022-08-02T14:23:18.784Z,35.78
2022-08-02T14:26:14.129Z,35.35
2022-08-02T14:28:56.066Z,35.11
2022-08-02T14:31:25.504Z,34.66
2022-08-02T14:33:57.520Z,33.84
2022-08-02T14:36:27.681Z,33.34
2022-08-02T14:38:57.511Z,33.04
2022-08-02T14:41:26.926Z,33.20
2022-08-02T14:44:08.432Z,33.25
2022-08-02T14:46:40.490Z,33.50
2022-08-02T14:49:14.691Z,33.48
2022-08-02T14:51:48.168Z,33.44
2022-08-02T14:54:18.294Z,33.21
2022-08-02T14:56:48.351Z,32.96
2022-08-02T14:59:18.368Z,33.08
2022-08-02T15:01:47.841Z,32.99
2022-08-02T15:04:19.876Z,33.40
2022-08-02T15:06:49.364Z,33.71
2022-08-02T15:09:18.804Z,33.92
2022-08-02T15:11:49.261Z,33.82
2022-08-02T15:14:22.050Z,33.56
2022-08-02T15:16:58.047Z,33.64
2022-08-02T15:19:56.156Z,33.75
2022-08-02T15:22:20.432Z,33.93
2022-08-02T15:24:50.065Z,34.32
2022-08-02T15:27:19.708Z,34.30
2022-08-02T15:29:49.252Z,33.78
2022-08-02T15:32:19.835Z,33.70
2022-08-02T15:34:54.934Z,33.60
2022-08-02T15:37:24.387Z,33.23
2022-08-02T15:39:54.643Z,33.00
2022-08-02T15:42:30.319Z,32.87
2022-08-02T15:45:00.694Z,32.94
2022-08-02T15:47:30.246Z,33.06
2022-08-02T15:50:02.240Z,33.16
2022-08-02T15:52:32.517Z,32.96
2022-08-02T15:55:07.244Z,32.84
2022-08-02T15:57:36.926Z,32.99
2022-08-02T16:00:14.064Z,33.41
2022-08-02T16:02:47.812Z,33.29
2022-08-02T16:05:20.845Z,33.55
2022-08-02T16:07:50.345Z,33.54
2022-08-02T16:10:19.807Z,33.46
2022-08-02T16:12:49.273Z,33.59
2022-08-02T16:15:18.703Z,33.50
2022-08-02T16:17:48.791Z,33.14
2022-08-02T16:20:25.819Z,32.92
2022-08-02T16:22:55.239Z,32.70
2022-08-02T16:25:24.663Z,32.75
2022-08-02T16:28:00.185Z,32.83
2022-08-02T16:30:36.973Z,33.02
2022-08-02T16:33:06.461Z,32.81
2022-08-02T16:35:38.469Z,32.63
2022-08-02T16:38:07.947Z,32.83
2022-08-02T16:40:37.452Z,33.08
2022-08-02T16:43:08.951Z,33.07
2022-08-02T16:45:38.780Z,33.29
2022-08-02T16:48:09.045Z,33.04
2022-08-02T16:50:41.453Z,32.81
2022-08-02T16:53:36.767Z,33.05
2022-08-02T16:56:05.890Z,32.66
2022-08-02T16:58:35.350Z,32.39
2022-08-02T17:01:06.870Z,32.45
2022-08-02T17:06:28.376Z,32.39
2022-08-02T17:08:58.932Z,32.44
2022-08-02T17:11:28.547Z,32.58
2022-08-02T17:13:58.041Z,32.74
2022-08-02T17:16:28.935Z,32.66
2022-08-02T17:18:59.904Z,32.39
2022-08-02T17:21:33.890Z,32.43
2022-08-02T17:24:05.455Z,32.26
2022-08-02T17:26:36.396Z,31.99
2022-08-02T17:29:15.684Z,31.81
2022-08-02T17:32:05.425Z,31.98
2022-08-02T17:34:36.973Z,31.83
2022-08-02T17:37:09.651Z,31.80
2022-08-02T17:39:44.032Z,31.86
2022-08-02T17:42:23.772Z,31.59
2022-08-02T17:44:54.022Z,31.62
2022-08-02T17:47:23.530Z,31.68
2022-08-02T17:50:00.745Z,31.59
2022-08-02T17:52:50.947Z,31.58
2022-08-02T17:55:22.568Z,31.49
2022-08-02T17:57:57.133Z,31.44
2022-08-02T18:00:34.095Z,31.26
2022-08-02T18:03:05.750Z,31.08
2022-08-02T18:05:40.430Z,30.96
2022-08-02T18:08:26.161Z,30.84
2022-08-02T18:10:55.903Z,30.63
2022-08-02T18:13:25.497Z,30.52
2022-08-02T18:16:02.417Z,30.45
2022-08-02T18:18:33.481Z,30.49
2022-08-02T18:21:15.902Z,30.39
2022-08-02T18:23:48.758Z,30.27
2022-08-02T18:26:20.891Z,30.13
2022-08-02T18:28:50.448Z,30.10
2022-08-02T18:31:22.452Z,30.13
2022-08-02T18:33:58.682Z,30.03
2022-08-02T18:36:30.620Z,30.00
2022-08-02T18:39:08.077Z,29.98
2022-08-02T18:41:38.348Z,29.99
2022-08-02T18:44:08.054Z,29.99
2022-08-02T18:46:39.960Z,29.96
2022-08-02T18:52:00.759Z,29.92
2022-08-02T18:54:34.125Z,29.90
2022-08-02T18:57:04.259Z,29.85
2022-08-02T18:59:53.286Z,29.88
2022-08-02T19:02:22.808Z,29.82
2022-08-02T19:04:54.426Z,29.87
2022-08-02T19:07:25.270Z,29.77
2022-08-02T19:10:17.243Z,29.35
2022-08-02T19:12:46.715Z,29.68
2022-08-02T19:15:21.315Z,29.84
2022-08-02T19:17:53.682Z,29.92
2022-08-02T19:20:24.146Z,29.83
2022-08-02T19:22:53.992Z,29.78
2022-08-02T19:25:27.574Z,29.79
2022-08-02T19:27:57.218Z,29.73
2022-08-02T19:30:27.149Z,29.67
2022-08-02T19:32:58.658Z,29.67
2022-08-02T19:35:31.412Z,29.67
2022-08-02T19:38:11.328Z,29.63
2022-08-02T19:40:44.502Z,29.63
2022-08-02T19:44:25.149Z,29.62
2022-08-02T19:46:05.277Z,29.50
2022-08-02T19:48:34.725Z,29.58
2022-08-02T19:53:53.794Z,29.69
2022-08-02T19:56:26.323Z,29.69
2022-08-02T19:58:57.729Z,29.58
2022-08-02T20:01:37.222Z,29.64
2022-08-02T20:04:12.969Z,29.72
2022-08-02T20:06:46.186Z,29.73
2022-08-02T20:09:21.322Z,29.72
2022-08-02T20:11:55.247Z,29.67
2022-08-02T20:14:26.692Z,29.66
2022-08-02T20:16:56.800Z,29.63
2022-08-02T20:19:29.080Z,29.60
2022-08-02T20:21:59.688Z,29.59
2022-08-02T20:24:30.422Z,29.54
2022-08-02T20:27:02.516Z,29.48
2022-08-02T20:29:42.867Z,29.41
2022-08-02T20:32:21.336Z,29.35
2022-08-02T20:38:00.892Z,29.29
2022-08-02T20:40:31.465Z,29.27
2022-08-02T20:43:03.491Z,29.25
2022-08-02T20:45:37.133Z,29.21
2022-08-02T20:48:07.340Z,29.19
2022-08-02T20:50:50.850Z,29.16
2022-08-02T20:53:24.181Z,29.15
2022-08-02T20:55:56.842Z,29.12
2022-08-02T20:58:28.845Z,29.06
2022-08-02T21:01:01.285Z,29.10
2022-08-02T21:03:32.362Z,29.10
2022-08-02T21:06:08.886Z,29.06
2022-08-02T21:08:38.576Z,29.02
2022-08-02T21:11:09.087Z,29.01
2022-08-02T21:13:46.371Z,29.03
2022-08-02T21:16:19.002Z,29.05
2022-08-02T21:18:55.740Z,29.00
2022-08-02T21:21:30.039Z,28.95
2022-08-02T21:24:00.145Z,28.76
2022-08-02T21:29:23.148Z,28.84
2022-08-02T21:31:52.601Z,28.80
2022-08-02T21:34:27.091Z,28.69
2022-08-02T21:36:57.179Z,28.63
2022-08-02T21:39:26.714Z,28.64
2022-08-02T21:41:56.196Z,28.60
2022-08-02T21:44:28.218Z,28.56
2022-08-02T21:46:58.885Z,28.53
2022-08-02T21:50:09.203Z,28.49
2022-08-02T21:52:19.397Z,28.46
2022-08-02T21:54:48.947Z,28.47
2022-08-02T21:57:19.259Z,28.42
2022-08-02T21:59:53.056Z,28.40
2022-08-02T22:02:30.908Z,28.30
2022-08-02T22:05:02.638Z,28.20
2022-08-02T22:07:38.464Z,28.15
2022-08-02T22:10:09.319Z,28.09
2022-08-02T22:12:38.524Z,28.01
2022-08-02T22:15:12.132Z,27.92
2022-08-02T22:17:52.878Z,27.82
2022-08-02T22:20:23.438Z,27.72
2022-08-02T22:22:53.351Z,27.68
2022-08-02T22:25:31.507Z,27.66
2022-08-02T22:28:38.404Z,27.59
2022-08-02T22:31:00.149Z,27.53
2022-08-02T22:33:47.019Z,27.50
2022-08-02T22:36:30.224Z,27.48
2022-08-02T22:38:59.672Z,27.43
2022-08-02T22:42:06.302Z,27.40
2022-08-02T22:44:18.998Z,27.37
2022-08-02T22:46:52.207Z,27.32
2022-08-02T22:49:38.003Z,27.30
2022-08-02T22:52:11.230Z,27.29
2022-08-02T22:54:40.780Z,27.26
2022-08-02T22:57:12.856Z,27.28
2022-08-02T22:58:36.522Z,32.32
2022-08-02T22:58:53.396Z,29.64
2022-08-02T22:58:55.826Z,29.36
2022-08-02T22:58:57.123Z,29.92
2022-08-02T22:59:02.778Z,28.83
2022-08-02T22:59:42.643Z,27.23
2022-08-02T23:02:15.018Z,27.20
2022-08-02T23:04:44.899Z,27.18
2022-08-02T23:07:14.344Z,27.14
2022-08-02T23:09:43.789Z,27.10
2022-08-02T23:12:15.220Z,27.04
2022-08-02T23:14:44.858Z,27.01
2022-08-02T23:17:29.383Z,26.94
2022-08-02T23:19:58.848Z,26.84
2022-08-02T23:22:29.738Z,26.80
2022-08-02T23:25:01.997Z,26.72
2022-08-02T23:27:31.571Z,26.61
2022-08-02T23:30:01.211Z,26.60
2022-08-02T23:32:33.271Z,26.54
2022-08-02T23:35:02.710Z,26.50
2022-08-02T23:37:59.410Z,26.48
2022-08-02T23:40:31.679Z,26.44
2022-08-02T23:43:12.562Z,26.44
2022-08-02T23:45:45.595Z,26.43
2022-08-02T23:48:17.658Z,26.36
2022-08-02T23:50:47.890Z,26.32
2022-08-02T23:53:17.339Z,26.28
2022-08-02T23:55:46.804Z,26.24
2022-08-02T23:58:16.269Z,26.24
